Friday, July 20, 2018, 12:38 PM EDT
Back to Local

KMRB, Martinsburg Eastern Wv Reg

Location: Martinsburg, WV, United States Lat: 39.4
Local Time: 12:38 PM EDT (16:38 GMT) Lon: -77.983
Time Zone: US/Eastern Elev: 557 ft

Show me the last for .
Show Decoded

2018-07-20 11:53 METAR KMRB 201553Z 16009G17KT 10SM FEW038 SCT047 27/18 A3010 RMK AO2 SLP187
                 T02720178 =
2018-07-20 10:53 METAR KMRB 201453Z 14008KT 10SM CLR 26/19 A3010 RMK AO2 SLP189 T02610189 58001 =
2018-07-20 09:53 METAR KMRB 201353Z 18007KT 10SM CLR 25/19 A3010 RMK AO2 SLP189 T02500189 =
2018-07-20 08:53 METAR KMRB 201253Z 14004KT 10SM CLR 22/18 A3011 RMK AO2 SLP193 T02220183 =
2018-07-20 07:53 METAR KMRB 201153Z 00000KT 10SM FEW070 21/17 A3010 RMK AO2 SLP190 T02060172
                 10206 20161 53006 =
2018-07-20 06:53 METAR KMRB 201053Z 00000KT 10SM FEW070 18/16 A3010 RMK AO2 SLP189 T01780161 =
2018-07-20 05:53 METAR KMRB 200953Z AUTO 00000KT 10SM CLR 16/16 A3009 RMK AO2 SLP185 T01610156 =
2018-07-20 04:53 METAR KMRB 200853Z AUTO 00000KT 10SM FEW065 17/16 A3009 RMK AO2 SLP184 T01720161
                 50000 =
2018-07-20 03:53 METAR KMRB 200753Z AUTO 00000KT 10SM FEW065 17/16 A3009 RMK AO2 SLP184 T01670156
                 =
2018-07-20 02:53 METAR KMRB 200653Z AUTO 00000KT 10SM CLR 17/16 A3009 RMK AO2 SLP184 T01670156 =
2018-07-20 01:53 METAR KMRB 200553Z AUTO 00000KT 10SM CLR 17/16 A3009 RMK AO2 SLP184 T01720161
                 10261 20172 50004 =
2018-07-20 00:53 METAR KMRB 200453Z AUTO 00000KT 10SM FEW065 18/16 A3010 RMK AO2 SLP188 T01780161
                 402890161 =
2018-07-19 23:53 METAR KMRB 200353Z AUTO 00000KT 10SM CLR 18/17 A3009 RMK AO2 SLP184 T01830167 =
2018-07-19 22:53 METAR KMRB 200253Z AUTO 00000KT 10SM CLR 19/17 A3007 RMK AO2 SLP180 T01940167
                 51009 =
2018-07-19 21:53 METAR KMRB 200153Z 00000KT 10SM CLR 21/16 A3007 RMK AO2 SLP176 T02110161 =
2018-07-19 20:53 METAR KMRB 200053Z 16003KT 10SM CLR 22/16 A3006 RMK AO2 SLP174 T02220161 =
2018-07-19 19:53 METAR KMRB 192353Z 00000KT 10SM CLR 26/15 A3005 RMK AO2 SLP170 T02610150 10289
                 20261 56006 =
2018-07-19 18:53 METAR KMRB 192253Z 15008KT 10SM BKN060 28/14 A3005 RMK AO2 SLP171 T02780139 =
2018-07-19 17:53 METAR KMRB 192153Z 15004KT 10SM CLR 28/14 A3006 RMK AO2 SLP172 T02830139 =
2018-07-19 16:53 METAR KMRB 192053Z VRB05KT 10SM FEW060 28/14 A3007 RMK AO2 SLP176 T02830144
                 56009 =
2018-07-19 16:13 METAR KMRB 192013Z 14006KT 10SM FEW065 28/13 A3007 RMK AO2 T02830133 =
2018-07-19 16:04 METAR KMRB 192004Z 16007KT 2 1/2SM HZ FEW065 28/13 A3007 RMK AO2 T02830133 =
2018-07-19 15:53 METAR KMRB 191953Z 20007KT 10SM FEW060 28/14 A3007 RMK AO2 SLP178 T02830139 =
2018-07-19 14:53 METAR KMRB 191853Z 07007KT 10SM CLR 29/13 A3008 RMK AO2 SLP180 T02890133 =
2018-07-19 13:53 METAR KMRB 191753Z 13004KT 10SM CLR 27/14 A3009 RMK AO2 SLP187 T02720139 10278
                 20200 58011 =
2018-07-19 12:53 METAR KMRB 191653Z 00000KT 10SM CLR 27/14 A3012 RMK AO2 SLP194 T02670139 =

Support USWX by starting your Amazon purchase here.